sensor_id;sensor_type;location;lat;lon;timestamp;pressure;altitude;pressure_sealevel;temperature;humidity
73651;BME280;61944;52.538;6.108;2023-03-17T00:00:18;100744.75;;;7.78;87.86
73651;BME280;61944;52.538;6.108;2023-03-17T00:02:46;100725.63;;;7.76;89.32
73651;BME280;61944;52.538;6.108;2023-03-17T00:05:18;100720.50;;;7.78;88.22
73651;BME280;61944;52.538;6.108;2023-03-17T00:07:45;100725.34;;;7.81;88.73
73651;BME280;61944;52.538;6.108;2023-03-17T00:10:22;100717.53;;;7.71;88.86
73651;BME280;61944;52.538;6.108;2023-03-17T00:12:50;100726.88;;;7.79;88.21
73651;BME280;61944;52.538;6.108;2023-03-17T00:15:18;100741.53;;;7.76;89.20
73651;BME280;61944;52.538;6.108;2023-03-17T00:17:45;100749.09;;;7.75;87.98
73651;BME280;61944;52.538;6.108;2023-03-17T00:20:38;100741.47;;;7.72;87.26
73651;BME280;61944;52.538;6.108;2023-03-17T00:23:03;100743.88;;;7.73;86.92
73651;BME280;61944;52.538;6.108;2023-03-17T00:25:31;100739.56;;;7.76;87.27
73651;BME280;61944;52.538;6.108;2023-03-17T00:27:58;100745.41;;;7.71;87.20
73651;BME280;61944;52.538;6.108;2023-03-17T00:30:25;100746.13;;;7.68;87.78
73651;BME280;61944;52.538;6.108;2023-03-17T00:32:53;100736.97;;;7.67;87.29
73651;BME280;61944;52.538;6.108;2023-03-17T00:35:23;100738.13;;;7.66;88.98
73651;BME280;61944;52.538;6.108;2023-03-17T00:37:50;100724.94;;;7.63;87.52
73651;BME280;61944;52.538;6.108;2023-03-17T00:40:22;100732.47;;;7.63;88.24
73651;BME280;61944;52.538;6.108;2023-03-17T00:42:49;100718.94;;;7.61;90.35
73651;BME280;61944;52.538;6.108;2023-03-17T00:45:15;100715.03;;;7.66;87.48
73651;BME280;61944;52.538;6.108;2023-03-17T00:47:41;100726.19;;;7.66;88.38
73651;BME280;61944;52.538;6.108;2023-03-17T00:50:12;100731.47;;;7.71;87.49
73651;BME280;61944;52.538;6.108;2023-03-17T00:52:38;100731.03;;;7.69;87.30
73651;BME280;61944;52.538;6.108;2023-03-17T00:55:06;100722.16;;;7.63;87.33
73651;BME280;61944;52.538;6.108;2023-03-17T00:57:33;100699.50;;;7.65;89.07
73651;BME280;61944;52.538;6.108;2023-03-17T00:59:59;100715.03;;;7.66;89.97
73651;BME280;61944;52.538;6.108;2023-03-17T01:02:25;100714.31;;;7.69;87.35
73651;BME280;61944;52.538;6.108;2023-03-17T01:04:51;100712.63;;;7.64;88.89
73651;BME280;61944;52.538;6.108;2023-03-17T01:07:16;100704.56;;;7.59;88.04
73651;BME280;61944;52.538;6.108;2023-03-17T01:09:42;100701.31;;;7.57;87.41
73651;BME280;61944;52.538;6.108;2023-03-17T01:12:11;100706.88;;;7.57;88.09
73651;BME280;61944;52.538;6.108;2023-03-17T01:14:37;100704.44;;;7.56;87.26
73651;BME280;61944;52.538;6.108;2023-03-17T01:17:04;100715.84;;;7.50;87.69
73651;BME280;61944;52.538;6.108;2023-03-17T01:19:33;100703.56;;;7.51;87.55
73651;BME280;61944;52.538;6.108;2023-03-17T01:21:58;100718.38;;;7.56;89.41
73651;BME280;61944;52.538;6.108;2023-03-17T01:24:23;100698.78;;;7.52;87.90
73651;BME280;61944;52.538;6.108;2023-03-17T01:26:50;100701.50;;;7.48;89.05
73651;BME280;61944;52.538;6.108;2023-03-17T01:29:16;100703.56;;;7.51;88.78
73651;BME280;61944;52.538;6.108;2023-03-17T01:31:41;100691.63;;;7.51;88.59
73651;BME280;61944;52.538;6.108;2023-03-17T01:34:06;100678.84;;;7.50;88.42
73651;BME280;61944;52.538;6.108;2023-03-17T01:36:32;100677.88;;;7.42;87.95
73651;BME280;61944;52.538;6.108;2023-03-17T01:38:58;100663.59;;;7.44;89.24
73651;BME280;61944;52.538;6.108;2023-03-17T01:41:23;100657.94;;;7.40;89.79
73651;BME280;61944;52.538;6.108;2023-03-17T01:43:49;100673.66;;;7.48;87.33
73651;BME280;61944;52.538;6.108;2023-03-17T01:46:44;100678.78;;;7.46;89.77
73651;BME280;61944;52.538;6.108;2023-03-17T01:49:18;100671.03;;;7.40;88.97
73651;BME280;61944;52.538;6.108;2023-03-17T01:54:32;100666.75;;;7.42;89.04
73651;BME280;61944;52.538;6.108;2023-03-17T01:57:12;100671.69;;;7.33;89.02
73651;BME280;61944;52.538;6.108;2023-03-17T01:59:48;100669.63;;;7.30;91.42
73651;BME280;61944;52.538;6.108;2023-03-17T02:02:19;100673.31;;;7.34;92.12
73651;BME280;61944;52.538;6.108;2023-03-17T02:04:48;100663.06;;;7.22;90.35
73651;BME280;61944;52.538;6.108;2023-03-17T02:07:14;100670.63;;;7.22;91.62
73651;BME280;61944;52.538;6.108;2023-03-17T02:09:39;100672.50;;;7.18;90.72
73651;BME280;61944;52.538;6.108;2023-03-17T02:12:05;100672.88;;;7.16;90.12
73651;BME280;61944;52.538;6.108;2023-03-17T02:14:31;100660.28;;;7.22;91.09
73651;BME280;61944;52.538;6.108;2023-03-17T02:16:57;100639.66;;;7.23;90.35
73651;BME280;61944;52.538;6.108;2023-03-17T02:19:22;100642.69;;;7.18;89.81
73651;BME280;61944;52.538;6.108;2023-03-17T02:21:55;100639.66;;;7.23;89.71
73651;BME280;61944;52.538;6.108;2023-03-17T02:24:43;100639.91;;;7.18;90.06
73651;BME280;61944;52.538;6.108;2023-03-17T02:27:15;100642.78;;;7.22;89.54
73651;BME280;61944;52.538;6.108;2023-03-17T02:29:41;100643.03;;;7.17;89.71
73651;BME280;61944;52.538;6.108;2023-03-17T02:32:11;100646.03;;;7.24;90.93
73651;BME280;61944;52.538;6.108;2023-03-17T02:34:38;100640.72;;;7.19;90.67
73651;BME280;61944;52.538;6.108;2023-03-17T02:37:04;100647.72;;;7.12;90.28
73651;BME280;61944;52.538;6.108;2023-03-17T02:39:29;100648.44;;;7.09;91.20
73651;BME280;61944;52.538;6.108;2023-03-17T02:41:56;100641.44;;;7.16;90.98
73651;BME280;61944;52.538;6.108;2023-03-17T02:44:22;100649.34;;;7.13;91.03
73651;BME280;61944;52.538;6.108;2023-03-17T02:46:47;100636.78;;;7.20;90.57
73651;BME280;61944;52.538;6.108;2023-03-17T02:49:14;100643.22;;;7.24;90.44
73651;BME280;61944;52.538;6.108;2023-03-17T02:51:40;100645.66;;;7.25;92.74
73651;BME280;61944;52.538;6.108;2023-03-17T02:54:05;100649.50;;;7.21;92.70
73651;BME280;61944;52.538;6.108;2023-03-17T02:56:31;100649.78;;;7.16;91.28
73651;BME280;61944;52.538;6.108;2023-03-17T02:58:57;100647.09;;;7.19;91.65
73651;BME280;61944;52.538;6.108;2023-03-17T03:01:22;100636.59;;;7.12;92.87
73651;BME280;61944;52.538;6.108;2023-03-17T03:03:48;100646.56;;;7.13;91.56
73651;BME280;61944;52.538;6.108;2023-03-17T03:06:13;100636.59;;;7.12;93.52
73651;BME280;61944;52.538;6.108;2023-03-17T03:08:39;100637.94;;;7.03;92.52
73651;BME280;61944;52.538;6.108;2023-03-17T03:11:05;100639.75;;;6.95;91.49
73651;BME280;61944;52.538;6.108;2023-03-17T03:13:31;100648.09;;;6.95;92.40
73651;BME280;61944;52.538;6.108;2023-03-17T03:15:57;100646.66;;;7.01;92.49
73651;BME280;61944;52.538;6.108;2023-03-17T03:18:22;100645.84;;;7.01;92.78
73651;BME280;61944;52.538;6.108;2023-03-17T03:20:48;100648.88;;;6.96;93.28
73651;BME280;61944;52.538;6.108;2023-03-17T03:23:14;100636.72;;;7.00;92.71
73651;BME280;61944;52.538;6.108;2023-03-17T03:25:40;100636.25;;;6.98;93.23
73651;BME280;61944;52.538;6.108;2023-03-17T03:28:07;100645.13;;;6.88;92.62
73651;BME280;61944;52.538;6.108;2023-03-17T03:30:34;100655.19;;;6.92;93.19
73651;BME280;61944;52.538;6.108;2023-03-17T03:32:59;100652.84;;;6.95;93.36
73651;BME280;61944;52.538;6.108;2023-03-17T03:35:25;100646.22;;;6.83;93.47
73651;BME280;61944;52.538;6.108;2023-03-17T03:37:50;100655.09;;;6.89;93.43
73651;BME280;61944;52.538;6.108;2023-03-17T03:40:16;100641.09;;;6.85;92.60
73651;BME280;61944;52.538;6.108;2023-03-17T03:42:41;100644.47;;;6.79;92.97
73651;BME280;61944;52.538;6.108;2023-03-17T03:45:07;100635.88;;;6.84;92.88
73651;BME280;61944;52.538;6.108;2023-03-17T03:47:33;100623.13;;;6.83;94.54
73651;BME280;61944;52.538;6.108;2023-03-17T03:49:58;100638.66;;;6.84;93.20
73651;BME280;61944;52.538;6.108;2023-03-17T03:52:24;100630.59;;;6.95;94.73
73651;BME280;61944;52.538;6.108;2023-03-17T03:54:49;100622.69;;;6.81;95.15
73651;BME280;61944;52.538;6.108;2023-03-17T03:57:15;100630.84;;;6.74;95.35
73651;BME280;61944;52.538;6.108;2023-03-17T03:59:40;100636.53;;;6.77;92.21
73651;BME280;61944;52.538;6.108;2023-03-17T04:02:06;100643.34;;;6.80;94.80
73651;BME280;61944;52.538;6.108;2023-03-17T04:04:32;100646.47;;;6.78;94.58
73651;BME280;61944;52.538;6.108;2023-03-17T04:06:57;100648.28;;;6.70;93.83
73651;BME280;61944;52.538;6.108;2023-03-17T04:09:23;100643.50;;;6.71;93.24
73651;BME280;61944;52.538;6.108;2023-03-17T04:11:48;100650.94;;;6.83;94.18
73651;BME280;61944;52.538;6.108;2023-03-17T04:14:13;100645.56;;;6.74;93.45
73651;BME280;61944;52.538;6.108;2023-03-17T04:16:39;100651.97;;;6.75;92.70
73651;BME280;61944;52.538;6.108;2023-03-17T04:19:05;100639.19;;;6.74;93.45
73651;BME280;61944;52.538;6.108;2023-03-17T04:21:30;100646.13;;;6.80;93.37
73651;BME280;61944;52.538;6.108;2023-03-17T04:23:56;100645.22;;;6.76;93.52
73651;BME280;61944;52.538;6.108;2023-03-17T04:26:21;100648.56;;;6.81;94.00
73651;BME280;61944;52.538;6.108;2023-03-17T04:28:48;100648.63;;;6.85;92.78
73651;BME280;61944;52.538;6.108;2023-03-17T04:31:14;100640.00;;;6.74;92.79
73651;BME280;61944;52.538;6.108;2023-03-17T04:33:39;100637.31;;;6.78;93.72
73651;BME280;61944;52.538;6.108;2023-03-17T04:36:05;100630.31;;;6.84;94.47
73651;BME280;61944;52.538;6.108;2023-03-17T04:38:32;100629.16;;;6.85;94.88
73651;BME280;61944;52.538;6.108;2023-03-17T04:40:57;100626.28;;;6.81;92.39
73651;BME280;61944;52.538;6.108;2023-03-17T04:43:22;100621.53;;;6.82;92.08
73651;BME280;61944;52.538;6.108;2023-03-17T04:45:48;100627.25;;;6.89;92.12
73651;BME280;61944;52.538;6.108;2023-03-17T04:48:13;100629.59;;;6.87;91.94
73651;BME280;61944;52.538;6.108;2023-03-17T04:50:39;100648.03;;;6.91;91.15
73651;BME280;61944;52.538;6.108;2023-03-17T04:53:04;100658.78;;;6.93;91.58
73651;BME280;61944;52.538;6.108;2023-03-17T04:55:29;100652.41;;;6.92;92.63
73651;BME280;61944;52.538;6.108;2023-03-17T04:57:55;100655.97;;;6.93;92.17
73651;BME280;61944;52.538;6.108;2023-03-17T05:00:21;100667.31;;;7.00;91.00
73651;BME280;61944;52.538;6.108;2023-03-17T05:02:46;100664.53;;;7.00;90.90
73651;BME280;61944;52.538;6.108;2023-03-17T05:05:11;100659.13;;;7.07;89.48
73651;BME280;61944;52.538;6.108;2023-03-17T05:07:37;100665.94;;;7.10;90.88
73651;BME280;61944;52.538;6.108;2023-03-17T05:10:03;100661.63;;;7.12;90.75
73651;BME280;61944;52.538;6.108;2023-03-17T05:12:29;100652.13;;;7.13;90.35
73651;BME280;61944;52.538;6.108;2023-03-17T05:14:55;100649.34;;;7.13;89.84
73651;BME280;61944;52.538;6.108;2023-03-17T05:17:20;100646.22;;;7.15;89.84
73651;BME280;61944;52.538;6.108;2023-03-17T05:19:46;100627.09;;;7.13;90.34
73651;BME280;61944;52.538;6.108;2023-03-17T05:22:11;100639.00;;;7.14;89.27
73651;BME280;61944;52.538;6.108;2023-03-17T05:24:36;100643.50;;;7.19;91.68
73651;BME280;61944;52.538;6.108;2023-03-17T05:27:02;100655.47;;;7.19;89.74
73651;BME280;61944;52.538;6.108;2023-03-17T05:29:27;100658.25;;;7.19;89.33
73651;BME280;61944;52.538;6.108;2023-03-17T05:31:53;100665.31;;;7.17;89.65
73651;BME280;61944;52.538;6.108;2023-03-17T05:34:18;100657.69;;;7.13;89.84
73651;BME280;61944;52.538;6.108;2023-03-17T05:36:43;100662.53;;;7.17;90.21
73651;BME280;61944;52.538;6.108;2023-03-17T05:39:10;100654.19;;;7.32;89.33
73651;BME280;61944;52.538;6.108;2023-03-17T05:41:36;100655.16;;;7.24;89.53
73651;BME280;61944;52.538;6.108;2023-03-17T05:44:01;100662.28;;;7.22;89.75
73651;BME280;61944;52.538;6.108;2023-03-17T05:46:26;100646.38;;;7.22;89.10
73651;BME280;61944;52.538;6.108;2023-03-17T05:48:52;100640.00;;;7.22;89.32
73651;BME280;61944;52.538;6.108;2023-03-17T05:51:17;100640.34;;;7.20;90.36
73651;BME280;61944;52.538;6.108;2023-03-17T05:53:42;100639.13;;;7.18;89.64
73651;BME280;61944;52.538;6.108;2023-03-17T05:56:08;100656.50;;;7.15;89.94
73651;BME280;61944;52.538;6.108;2023-03-17T05:58:33;100670.44;;;7.15;90.94
73651;BME280;61944;52.538;6.108;2023-03-17T06:00:59;100669.38;;;7.19;90.28
73651;BME280;61944;52.538;6.108;2023-03-17T06:03:25;100650.94;;;7.15;90.82
73651;BME280;61944;52.538;6.108;2023-03-17T06:05:50;100657.88;;;7.21;91.08
73651;BME280;61944;52.538;6.108;2023-03-17T06:08:16;100640.00;;;7.22;89.82
73651;BME280;61944;52.538;6.108;2023-03-17T06:10:41;100634.88;;;7.24;90.29
73651;BME280;61944;52.538;6.108;2023-03-17T06:13:07;100636.94;;;7.27;90.96
73651;BME280;61944;52.538;6.108;2023-03-17T06:15:33;100606.69;;;7.25;91.15
73651;BME280;61944;52.538;6.108;2023-03-17T06:18:00;100592.38;;;7.27;93.65
73651;BME280;61944;52.538;6.108;2023-03-17T06:20:25;100598.78;;;7.27;90.17
73651;BME280;61944;52.538;6.108;2023-03-17T06:22:51;100589.91;;;7.22;90.20
73651;BME280;61944;52.538;6.108;2023-03-17T06:25:16;100597.25;;;7.30;90.91
73651;BME280;61944;52.538;6.108;2023-03-17T06:27:42;100611.53;;;7.28;92.91
73651;BME280;61944;52.538;6.108;2023-03-17T06:30:09;100614.75;;;7.30;90.42
73651;BME280;61944;52.538;6.108;2023-03-17T06:32:35;100613.22;;;7.33;90.69
73651;BME280;61944;52.538;6.108;2023-03-17T06:35:01;100613.97;;;7.30;90.53
73651;BME280;61944;52.538;6.108;2023-03-17T06:37:29;100617.19;;;7.32;90.99
73651;BME280;61944;52.538;6.108;2023-03-17T06:39:54;100624.28;;;7.29;90.75
73651;BME280;61944;52.538;6.108;2023-03-17T06:42:21;100618.72;;;7.29;90.15
73651;BME280;61944;52.538;6.108;2023-03-17T06:44:46;100614.59;;;7.23;90.95
73651;BME280;61944;52.538;6.108;2023-03-17T06:47:12;100637.13;;;7.34;91.74
73651;BME280;61944;52.538;6.108;2023-03-17T06:49:37;100637.28;;;7.41;90.36
73651;BME280;61944;52.538;6.108;2023-03-17T06:52:03;100632.44;;;7.38;90.84
73651;BME280;61944;52.538;6.108;2023-03-17T06:54:28;100641.94;;;7.37;90.48
73651;BME280;61944;52.538;6.108;2023-03-17T06:56:54;100641.59;;;7.39;89.92
73651;BME280;61944;52.538;6.108;2023-03-17T06:59:21;100639.34;;;7.44;89.86
73651;BME280;61944;52.538;6.108;2023-03-17T07:01:47;100641.03;;;7.49;89.31
73651;BME280;61944;52.538;6.108;2023-03-17T07:04:13;100650.72;;;7.55;88.90
73651;BME280;61944;52.538;6.108;2023-03-17T07:06:39;100658.25;;;7.90;88.07
73651;BME280;61944;52.538;6.108;2023-03-17T07:09:04;100647.69;;;8.38;88.60
73651;BME280;61944;52.538;6.108;2023-03-17T07:11:31;100653.22;;;8.54;85.24
73651;BME280;61944;52.538;6.108;2023-03-17T07:13:57;100648.66;;;8.07;85.85
73651;BME280;61944;52.538;6.108;2023-03-17T07:16:22;100654.75;;;7.93;86.68
73651;BME280;61944;52.538;6.108;2023-03-17T07:18:49;100651.59;;;8.14;87.39
73651;BME280;61944;52.538;6.108;2023-03-17T07:21:14;100643.22;;;7.94;88.28
73651;BME280;61944;52.538;6.108;2023-03-17T07:23:40;100640.66;;;7.86;87.88
73651;BME280;61944;52.538;6.108;2023-03-17T07:26:06;100640.59;;;7.82;87.99
73651;BME280;61944;52.538;6.108;2023-03-17T07:28:31;100641.03;;;7.84;87.21
73651;BME280;61944;52.538;6.108;2023-03-17T07:30:56;100636.31;;;7.88;87.81
73651;BME280;61944;52.538;6.108;2023-03-17T07:33:23;100638.03;;;7.93;87.57
73651;BME280;61944;52.538;6.108;2023-03-17T07:35:50;100632.06;;;7.94;87.04
73651;BME280;61944;52.538;6.108;2023-03-17T07:38:17;100630.59;;;8.01;86.83
73651;BME280;61944;52.538;6.108;2023-03-17T07:40:45;100624.31;;;8.04;86.60
73651;BME280;61944;52.538;6.108;2023-03-17T07:43:12;100624.44;;;8.11;87.68
73651;BME280;61944;52.538;6.108;2023-03-17T07:45:37;100615.50;;;8.02;87.12
73651;BME280;61944;52.538;6.108;2023-03-17T07:48:04;100630.78;;;8.08;87.13
73651;BME280;61944;52.538;6.108;2023-03-17T07:50:31;100630.19;;;8.18;86.31
73651;BME280;61944;52.538;6.108;2023-03-17T07:52:56;100623.84;;;8.21;86.97
73651;BME280;61944;52.538;6.108;2023-03-17T07:55:22;100628.72;;;8.44;85.87
73651;BME280;61944;52.538;6.108;2023-03-17T07:57:47;100629.81;;;8.39;85.72
73651;BME280;61944;52.538;6.108;2023-03-17T08:00:13;100633.38;;;8.40;86.38
73651;BME280;61944;52.538;6.108;2023-03-17T08:02:38;100630.97;;;8.38;86.46
73651;BME280;61944;52.538;6.108;2023-03-17T08:05:05;100628.41;;;8.49;85.37
73651;BME280;61944;52.538;6.108;2023-03-17T08:07:32;100610.78;;;8.45;85.19
73651;BME280;61944;52.538;6.108;2023-03-17T08:09:58;100613.28;;;8.50;85.93
73651;BME280;61944;52.538;6.108;2023-03-17T08:12:24;100614.91;;;8.51;85.03
73651;BME280;61944;52.538;6.108;2023-03-17T08:14:49;100616.13;;;8.53;85.61
73651;BME280;61944;52.538;6.108;2023-03-17T08:17:15;100600.94;;;8.51;85.88
73651;BME280;61944;52.538;6.108;2023-03-17T08:19:41;100618.13;;;8.53;85.22
73651;BME280;61944;52.538;6.108;2023-03-17T08:22:07;100629.44;;;8.60;84.36
73651;BME280;61944;52.538;6.108;2023-03-17T08:24:32;100631.03;;;8.61;84.96
73651;BME280;61944;52.538;6.108;2023-03-17T08:26:58;100628.22;;;8.61;84.95
73651;BME280;61944;52.538;6.108;2023-03-17T08:29:24;100640.59;;;8.60;84.87
73651;BME280;61944;52.538;6.108;2023-03-17T08:31:49;100636.16;;;8.59;85.38
73651;BME280;61944;52.538;6.108;2023-03-17T08:34:14;100615.09;;;8.62;84.49
73651;BME280;61944;52.538;6.108;2023-03-17T08:36:41;100619.00;;;8.57;85.14
73651;BME280;61944;52.538;6.108;2023-03-17T08:39:06;100631.78;;;8.58;86.30
73651;BME280;61944;52.538;6.108;2023-03-17T08:41:33;100619.69;;;8.73;85.92
73651;BME280;61944;52.538;6.108;2023-03-17T08:43:59;100611.31;;;8.73;85.68
73651;BME280;61944;52.538;6.108;2023-03-17T08:46:29;100612.03;;;8.93;85.19
73651;BME280;61944;52.538;6.108;2023-03-17T08:48:56;100612.19;;;9.01;84.37
73651;BME280;61944;52.538;6.108;2023-03-17T08:51:30;100606.25;;;9.06;84.70
73651;BME280;61944;52.538;6.108;2023-03-17T08:53:57;100609.03;;;9.29;83.69
73651;BME280;61944;52.538;6.108;2023-03-17T08:56:23;100604.88;;;9.46;82.62
73651;BME280;61944;52.538;6.108;2023-03-17T08:58:51;100619.97;;;9.68;83.07
73651;BME280;61944;52.538;6.108;2023-03-17T09:01:17;100609.34;;;9.50;82.42
73651;BME280;61944;52.538;6.108;2023-03-17T09:03:45;100619.22;;;9.71;81.82
73651;BME280;61944;52.538;6.108;2023-03-17T09:06:11;100620.91;;;9.79;81.40
73651;BME280;61944;52.538;6.108;2023-03-17T09:08:39;100621.47;;;9.62;82.69
73651;BME280;61944;52.538;6.108;2023-03-17T09:11:12;100624.16;;;9.54;83.07
73651;BME280;61944;52.538;6.108;2023-03-17T09:13:38;100615.31;;;9.79;81.63
73651;BME280;61944;52.538;6.108;2023-03-17T09:16:05;100617.78;;;9.84;80.36
73651;BME280;61944;52.538;6.108;2023-03-17T09:18:33;100618.03;;;10.02;80.64
73651;BME280;61944;52.538;6.108;2023-03-17T09:20:59;100612.13;;;10.11;80.13
73651;BME280;61944;52.538;6.108;2023-03-17T09:23:24;100619.47;;;9.92;81.27
73651;BME280;61944;52.538;6.108;2023-03-17T09:25:53;100614.75;;;9.96;81.74
73651;BME280;61944;52.538;6.108;2023-03-17T09:28:18;100618.81;;;10.03;81.15
73651;BME280;61944;52.538;6.108;2023-03-17T09:30:44;100623.38;;;10.18;81.00
73651;BME280;61944;52.538;6.108;2023-03-17T09:33:11;100614.69;;;10.23;79.89
73651;BME280;61944;52.538;6.108;2023-03-17T09:35:37;100621.22;;;10.34;81.02
73651;BME280;61944;52.538;6.108;2023-03-17T09:38:04;100616.25;;;10.54;79.89
73651;BME280;61944;52.538;6.108;2023-03-17T09:40:32;100611.59;;;10.69;79.52
73651;BME280;61944;52.538;6.108;2023-03-17T09:45:44;100620.44;;;10.75;78.89
73651;BME280;61944;52.538;6.108;2023-03-17T09:51:02;100622.75;;;11.10;79.14
73651;BME280;61944;52.538;6.108;2023-03-17T09:53:33;100623.84;;;11.50;77.96
73651;BME280;61944;52.538;6.108;2023-03-17T09:56:14;100627.50;;;11.58;77.50
73651;BME280;61944;52.538;6.108;2023-03-17T09:58:46;100629.81;;;11.49;78.16
73651;BME280;61944;52.538;6.108;2023-03-17T10:01:13;100618.28;;;11.57;76.43
73651;BME280;61944;52.538;6.108;2023-03-17T10:03:40;100612.00;;;11.78;76.53
73651;BME280;61944;52.538;6.108;2023-03-17T10:06:20;100613.94;;;11.71;76.63
73651;BME280;61944;52.538;6.108;2023-03-17T10:08:56;100620.13;;;12.02;75.17
73651;BME280;61944;52.538;6.108;2023-03-17T10:11:38;100622.84;;;11.87;74.86
73651;BME280;61944;52.538;6.108;2023-03-17T10:14:28;100622.94;;;12.02;74.98
73651;BME280;61944;52.538;6.108;2023-03-17T10:19:51;100612.13;;;12.00;73.24
73651;BME280;61944;52.538;6.108;2023-03-17T10:22:24;100604.66;;;12.51;73.12
73651;BME280;61944;52.538;6.108;2023-03-17T10:24:59;100605.50;;;12.80;72.09
73651;BME280;61944;52.538;6.108;2023-03-17T10:27:28;100603.88;;;12.79;71.17
73651;BME280;61944;52.538;6.108;2023-03-17T10:29:55;100599.06;;;12.72;71.77
73651;BME280;61944;52.538;6.108;2023-03-17T10:32:21;100589.03;;;12.64;72.50
73651;BME280;61944;52.538;6.108;2023-03-17T10:34:46;100600.69;;;12.88;71.63
73651;BME280;61944;52.538;6.108;2023-03-17T10:42:30;100601.47;;;12.81;70.42
73651;BME280;61944;52.538;6.108;2023-03-17T10:47:48;100610.72;;;12.89;71.10
73651;BME280;61944;52.538;6.108;2023-03-17T10:52:46;100618.34;;;13.20;70.25
73651;BME280;61944;52.538;6.108;2023-03-17T10:55:19;100634.41;;;13.02;69.80
73651;BME280;61944;52.538;6.108;2023-03-17T10:58:02;100646.44;;;12.92;70.87
73651;BME280;61944;52.538;6.108;2023-03-17T11:00:29;100658.50;;;13.21;69.61
73651;BME280;61944;52.538;6.108;2023-03-17T11:02:58;100650.47;;;13.23;70.68
73651;BME280;61944;52.538;6.108;2023-03-17T11:05:28;100659.31;;;13.14;70.28
73651;BME280;61944;52.538;6.108;2023-03-17T11:08:09;100664.91;;;13.25;69.52
73651;BME280;61944;52.538;6.108;2023-03-17T11:10:39;100660.50;;;13.13;70.99
73651;BME280;61944;52.538;6.108;2023-03-17T11:13:05;100654.50;;;13.47;70.04
73651;BME280;61944;52.538;6.108;2023-03-17T11:15:35;100655.31;;;13.37;69.82
73651;BME280;61944;52.538;6.108;2023-03-17T11:18:04;100660.09;;;13.08;73.46
73651;BME280;61944;52.538;6.108;2023-03-17T11:21:05;100657.34;;;13.33;71.63
73651;BME280;61944;52.538;6.108;2023-03-17T11:26:48;100671.78;;;13.60;70.39
73651;BME280;61944;52.538;6.108;2023-03-17T11:32:18;100687.41;;;13.57;72.16
73651;BME280;61944;52.538;6.108;2023-03-17T11:43:39;100663.69;;;13.83;71.00
73651;BME280;61944;52.538;6.108;2023-03-17T11:59:38;100659.88;;;14.33;69.78
73651;BME280;61944;52.538;6.108;2023-03-17T12:05:05;100655.41;;;14.47;70.08
73651;BME280;61944;52.538;6.108;2023-03-17T12:07:54;100653.06;;;14.34;69.72
73651;BME280;61944;52.538;6.108;2023-03-17T12:10:23;100645.41;;;14.31;70.40
73651;BME280;61944;52.538;6.108;2023-03-17T12:13:00;100650.22;;;14.34;70.13
73651;BME280;61944;52.538;6.108;2023-03-17T12:15:33;100643.03;;;14.26;70.08
73651;BME280;61944;52.538;6.108;2023-03-17T12:26:17;100636.50;;;14.47;70.39
73651;BME280;61944;52.538;6.108;2023-03-17T12:28:56;100635.69;;;14.47;70.66
73651;BME280;61944;52.538;6.108;2023-03-17T12:31:36;100648.03;;;14.74;70.05
73651;BME280;61944;52.538;6.108;2023-03-17T12:34:12;100655.94;;;14.94;69.07
73651;BME280;61944;52.538;6.108;2023-03-17T12:36:41;100657.81;;;15.15;68.79
73651;BME280;61944;52.538;6.108;2023-03-17T12:39:11;100657.41;;;15.16;67.93
73651;BME280;61944;52.538;6.108;2023-03-17T12:42:27;100665.34;;;14.73;69.16
73651;BME280;61944;52.538;6.108;2023-03-17T12:45:50;100656.59;;;15.16;68.63
